createdAt,value
2023-04-18T00:00:52.784Z,42.08
2023-04-18T00:03:22.036Z,47.05
2023-04-18T00:05:53.461Z,40.35
2023-04-18T00:08:21.510Z,44.97
2023-04-18T00:10:49.710Z,46.05
2023-04-18T00:13:18.630Z,41.22
2023-04-18T00:15:46.443Z,42.67
2023-04-18T00:18:17.639Z,42.28
2023-04-18T00:20:46.586Z,42.50
2023-04-18T00:23:16.806Z,43.33
2023-04-18T00:25:44.640Z,43.58
2023-04-18T00:28:12.701Z,41.95
2023-04-18T00:30:43.818Z,41.17
2023-04-18T00:33:11.780Z,40.13
2023-04-18T00:35:39.755Z,40.80
2023-04-18T00:38:08.857Z,38.55
2023-04-18T00:40:39.683Z,43.42
2023-04-18T00:43:08.510Z,40.78
2023-04-18T00:45:37.235Z,39.53
2023-04-18T00:48:05.158Z,40.58
2023-04-18T00:50:33.270Z,42.03
2023-04-18T00:53:01.236Z,41.33
2023-04-18T00:55:29.953Z,41.33
2023-04-18T00:57:57.808Z,45.53
2023-04-18T01:00:26.613Z,42.20
2023-04-18T01:02:56.120Z,46.03
2023-04-18T01:05:26.555Z,43.05
2023-04-18T01:07:58.822Z,45.88
2023-04-18T01:10:27.750Z,46.15
2023-04-18T01:13:20.251Z,43.78
2023-04-18T01:15:50.886Z,45.13
2023-04-18T01:18:19.382Z,47.17
2023-04-18T01:20:53.536Z,45.35
2023-04-18T01:23:23.101Z,38.47
2023-04-18T01:25:51.064Z,43.13
2023-04-18T01:28:25.905Z,42.60
2023-04-18T01:30:54.701Z,41.15
2023-04-18T01:33:23.159Z,40.83
2023-04-18T01:35:51.137Z,41.75
2023-04-18T01:38:19.519Z,44.10
2023-04-18T01:40:48.206Z,44.47
2023-04-18T01:43:16.269Z,52.33
2023-04-18T01:45:44.285Z,45.22
2023-04-18T01:48:14.844Z,44.13
2023-04-18T01:50:43.128Z,46.17
2023-04-18T01:53:12.149Z,43.00
2023-04-18T01:55:40.627Z,42.00
2023-04-18T01:58:08.665Z,45.72
2023-04-18T02:00:38.155Z,41.10
2023-04-18T02:03:06.722Z,42.70
2023-04-18T02:05:37.683Z,44.97
2023-04-18T02:08:11.727Z,40.90
2023-04-18T02:10:40.547Z,43.85
2023-04-18T02:13:08.730Z,41.08
2023-04-18T02:15:37.189Z,44.53
2023-04-18T02:18:06.922Z,45.13
2023-04-18T02:20:38.612Z,40.53
2023-04-18T02:23:06.974Z,43.70
2023-04-18T02:25:35.041Z,42.40
2023-04-18T02:28:03.162Z,42.75
2023-04-18T02:30:32.788Z,41.33
2023-04-18T02:35:35.336Z,49.83
2023-04-18T02:38:03.399Z,39.58
2023-04-18T02:40:31.356Z,45.30
2023-04-18T02:43:01.519Z,44.33
2023-04-18T02:45:30.524Z,48.83
2023-04-18T02:48:01.883Z,42.83
2023-04-18T02:50:29.803Z,44.78
2023-04-18T02:52:58.837Z,42.65
2023-04-18T02:55:34.590Z,38.60
2023-04-18T02:58:03.135Z,43.10
2023-04-18T03:00:50.654Z,46.92
2023-04-18T03:03:42.079Z,46.20
2023-04-18T03:06:33.144Z,44.13
2023-04-18T03:09:04.642Z,46.80
2023-04-18T03:11:35.630Z,45.85
2023-04-18T03:14:06.515Z,44.42
2023-04-18T03:16:52.331Z,42.92
2023-04-18T03:19:40.138Z,48.38
2023-04-18T03:22:17.792Z,42.08
2023-04-18T03:24:59.789Z,42.42
2023-04-18T03:27:47.610Z,40.08
2023-04-18T03:30:19.854Z,43.73
2023-04-18T03:32:53.850Z,32.25
2023-04-18T03:35:22.070Z,37.03
2023-04-18T03:37:50.613Z,40.13
2023-04-18T03:40:25.171Z,37.85
2023-04-18T03:42:56.346Z,38.72
2023-04-18T03:45:24.081Z,36.55
2023-04-18T03:47:52.439Z,37.70
2023-04-18T03:50:22.304Z,40.65
2023-04-18T03:52:52.342Z,42.75
2023-04-18T03:55:20.485Z,38.58
2023-04-18T03:57:48.347Z,38.20
2023-04-18T04:00:24.582Z,39.67
2023-04-18T04:03:03.061Z,37.58
2023-04-18T04:05:34.154Z,41.13
2023-04-18T04:08:02.143Z,35.95
2023-04-18T04:10:30.273Z,38.90
2023-04-18T04:12:59.271Z,38.33
2023-04-18T04:15:29.880Z,38.17
2023-04-18T04:18:07.108Z,38.03
2023-04-18T04:20:38.580Z,36.95
2023-04-18T04:23:16.847Z,37.10
2023-04-18T04:25:53.180Z,40.20
2023-04-18T04:28:36.950Z,40.40
2023-04-18T04:31:08.430Z,42.20
2023-04-18T04:33:39.000Z,41.45
2023-04-18T04:36:16.165Z,34.15
2023-04-18T04:38:45.671Z,40.00
2023-04-18T04:41:15.647Z,40.47
2023-04-18T04:43:43.337Z,39.45
2023-04-18T04:46:14.868Z,36.85
2023-04-18T04:48:43.839Z,40.15
2023-04-18T04:51:11.472Z,37.42
2023-04-18T04:53:39.036Z,34.13
2023-04-18T04:56:09.269Z,44.28
2023-04-18T04:58:37.035Z,41.72
2023-04-18T05:01:36.890Z,38.80
2023-04-18T05:04:05.091Z,39.42
2023-04-18T05:06:32.940Z,39.28
2023-04-18T05:09:01.154Z,38.55
2023-04-18T05:11:28.770Z,38.50
2023-04-18T05:13:56.335Z,43.70
2023-04-18T05:16:24.085Z,45.83
2023-04-18T05:18:51.720Z,45.85
2023-04-18T05:21:19.691Z,51.25
2023-04-18T05:23:47.306Z,43.35
2023-04-18T05:26:14.992Z,50.58
2023-04-18T05:28:42.790Z,47.17
2023-04-18T05:31:10.618Z,49.58
2023-04-18T05:33:38.185Z,43.90
2023-04-18T05:36:07.655Z,45.58
2023-04-18T05:38:35.374Z,44.08
2023-04-18T05:41:03.105Z,48.15
2023-04-18T05:43:30.755Z,47.70
2023-04-18T05:45:58.403Z,44.40
2023-04-18T05:48:26.034Z,52.03
2023-04-18T05:50:53.945Z,45.60
2023-04-18T05:53:21.670Z,49.08
2023-04-18T05:55:50.141Z,47.35
2023-04-18T05:58:17.514Z,48.65
2023-04-18T06:00:45.088Z,46.95
2023-04-18T06:03:12.697Z,52.15
2023-04-18T06:05:41.307Z,46.88
2023-04-18T06:08:09.081Z,49.30
2023-04-18T06:10:38.961Z,46.30
2023-04-18T06:13:07.092Z,46.50
2023-04-18T06:15:35.296Z,42.38
2023-04-18T06:18:06.375Z,50.90
2023-04-18T06:20:33.873Z,49.03
2023-04-18T06:23:01.380Z,47.47
2023-04-18T06:25:28.885Z,44.15
2023-04-18T06:27:56.291Z,41.70
2023-04-18T06:30:23.669Z,48.85
2023-04-18T06:32:51.472Z,45.38
2023-04-18T06:35:19.128Z,44.95
2023-04-18T06:37:46.734Z,48.83
2023-04-18T06:40:14.188Z,45.75
2023-04-18T06:42:43.459Z,49.72
2023-04-18T06:45:12.038Z,44.80
2023-04-18T06:47:40.473Z,50.95
2023-04-18T06:50:09.016Z,47.42
2023-04-18T06:52:40.543Z,46.22
2023-04-18T06:55:09.270Z,51.95
2023-04-18T06:57:37.412Z,49.13
2023-04-18T07:00:05.642Z,49.97
2023-04-18T07:02:34.934Z,43.25
2023-04-18T07:05:02.578Z,42.90
2023-04-18T07:07:30.781Z,46.03
2023-04-18T07:09:58.311Z,43.95
2023-04-18T07:12:25.873Z,54.22
2023-04-18T07:14:54.329Z,41.60
2023-04-18T07:17:22.052Z,52.30
2023-04-18T07:19:49.512Z,46.60
2023-04-18T07:22:16.972Z,43.97
2023-04-18T07:24:44.488Z,46.30
2023-04-18T07:27:12.073Z,41.55
2023-04-18T07:29:39.577Z,43.40
2023-04-18T07:32:08.377Z,46.95
2023-04-18T07:34:37.529Z,41.00
2023-04-18T07:37:05.018Z,48.40
2023-04-18T07:39:35.912Z,44.30
2023-04-18T07:44:31.547Z,45.13
2023-04-18T07:46:59.019Z,47.53
2023-04-18T07:49:26.743Z,42.63
2023-04-18T07:51:54.208Z,37.22
2023-04-18T07:54:21.650Z,44.45
2023-04-18T07:56:49.167Z,41.78
2023-04-18T07:59:16.974Z,35.83
2023-04-18T08:01:44.827Z,35.90
2023-04-18T08:04:13.119Z,35.67
2023-04-18T08:06:41.324Z,29.17
2023-04-18T08:09:09.155Z,28.55
2023-04-18T08:11:36.734Z,35.03
2023-04-18T08:14:04.498Z,34.45
2023-04-18T08:16:32.142Z,31.42
2023-04-18T08:18:59.778Z,34.75
2023-04-18T08:21:27.292Z,31.98
2023-04-18T08:23:54.808Z,32.75
2023-04-18T08:26:22.388Z,31.88
2023-04-18T08:28:49.940Z,33.05
2023-04-18T08:31:18.254Z,32.13
2023-04-18T08:33:45.988Z,25.50
2023-04-18T08:36:13.559Z,28.35
2023-04-18T08:38:41.089Z,24.15
2023-04-18T08:41:08.588Z,22.52
2023-04-18T08:43:38.087Z,29.02
2023-04-18T08:46:05.829Z,24.85
2023-04-18T08:48:33.426Z,26.48
2023-04-18T08:51:02.068Z,26.13
2023-04-18T08:53:32.471Z,21.92
2023-04-18T08:56:01.512Z,26.45
2023-04-18T08:58:32.227Z,24.95
2023-04-18T09:00:59.841Z,26.75
2023-04-18T09:03:39.000Z,32.28
2023-04-18T09:06:16.318Z,19.23
2023-04-18T09:08:56.475Z,30.88
2023-04-18T09:11:26.225Z,23.65
2023-04-18T09:13:56.021Z,24.40
2023-04-18T09:16:23.789Z,21.75
2023-04-18T09:19:12.190Z,27.00
2023-04-18T09:21:42.156Z,22.52
2023-04-18T09:24:18.288Z,21.60
2023-04-18T09:26:45.833Z,21.35
2023-04-18T09:29:13.594Z,21.73
2023-04-18T09:32:01.630Z,20.20
2023-04-18T09:34:29.596Z,19.08
2023-04-18T09:37:13.914Z,24.33
2023-04-18T09:39:43.141Z,24.35
2023-04-18T09:42:11.290Z,16.67
2023-04-18T09:44:57.443Z,23.08
2023-04-18T09:47:25.814Z,21.05
2023-04-18T09:49:53.383Z,24.83
2023-04-18T09:52:21.348Z,18.70
2023-04-18T09:54:51.011Z,26.38
2023-04-18T09:57:18.885Z,21.25
2023-04-18T09:59:59.270Z,25.88
2023-04-18T10:02:31.415Z,25.08
2023-04-18T10:05:00.331Z,19.70
2023-04-18T10:07:28.143Z,24.13
2023-04-18T10:09:56.324Z,22.83
2023-04-18T10:12:24.568Z,22.60
2023-04-18T10:14:53.379Z,37.90
2023-04-18T10:17:21.737Z,21.85
2023-04-18T10:20:06.330Z,18.60
2023-04-18T10:22:35.403Z,19.17
2023-04-18T10:25:03.449Z,15.93
2023-04-18T10:27:49.312Z,14.70
2023-04-18T10:30:17.333Z,15.15
2023-04-18T10:32:48.149Z,14.05
2023-04-18T10:35:15.747Z,15.48
2023-04-18T10:37:50.772Z,12.50
2023-04-18T10:40:35.266Z,14.38
2023-04-18T10:43:02.826Z,19.88
2023-04-18T10:45:32.517Z,18.27
2023-04-18T10:48:21.889Z,15.07
2023-04-18T10:51:18.616Z,18.27
2023-04-18T10:53:56.465Z,16.73
2023-04-18T10:56:26.077Z,9.95
2023-04-18T10:58:54.206Z,15.02
2023-04-18T11:01:32.195Z,15.05
2023-04-18T11:04:01.302Z,11.80
2023-04-18T11:06:30.360Z,17.10
2023-04-18T11:09:14.294Z,12.73
2023-04-18T11:11:42.439Z,14.73
2023-04-18T11:14:10.036Z,14.50
2023-04-18T11:16:38.352Z,18.25
2023-04-18T11:19:26.475Z,15.32
2023-04-18T11:22:01.003Z,18.08
2023-04-18T11:24:29.470Z,25.08
2023-04-18T11:26:57.054Z,15.43
2023-04-18T11:29:24.487Z,17.85
2023-04-18T11:31:58.235Z,18.13
2023-04-18T11:34:30.754Z,16.60
2023-04-18T11:36:58.576Z,18.52
2023-04-18T11:39:26.035Z,19.38
2023-04-18T11:41:56.058Z,19.80
2023-04-18T11:44:24.881Z,21.03
2023-04-18T11:46:53.343Z,19.95
2023-04-18T11:49:31.336Z,19.60
2023-04-18T11:52:01.193Z,17.90
2023-04-18T11:54:44.377Z,15.27
2023-04-18T11:57:26.614Z,24.50
2023-04-18T11:59:59.116Z,19.55
2023-04-18T12:02:38.708Z,23.13
2023-04-18T12:05:07.178Z,25.58
2023-04-18T12:07:39.219Z,19.73
2023-04-18T12:10:30.128Z,18.05
2023-04-18T12:12:58.971Z,19.55
2023-04-18T12:15:30.297Z,18.23
2023-04-18T12:18:00.609Z,24.60
2023-04-18T12:20:39.032Z,18.55
2023-04-18T12:23:07.454Z,23.60
2023-04-18T12:25:35.080Z,17.90
2023-04-18T12:28:18.563Z,16.10
2023-04-18T12:30:45.966Z,21.05
2023-04-18T12:33:13.437Z,19.67
2023-04-18T12:35:41.178Z,15.35
2023-04-18T12:38:08.657Z,18.92
2023-04-18T12:40:38.301Z,20.65
2023-04-18T12:43:05.923Z,22.88
2023-04-18T12:45:33.464Z,17.50
2023-04-18T12:48:00.899Z,21.45
2023-04-18T12:50:28.455Z,20.88
2023-04-18T12:53:02.164Z,17.05
2023-04-18T12:55:29.763Z,17.08
2023-04-18T12:57:58.194Z,16.27
2023-04-18T13:00:28.632Z,20.75
2023-04-18T13:02:56.422Z,19.55
2023-04-18T13:05:26.164Z,16.38
2023-04-18T13:07:58.737Z,18.27
2023-04-18T13:10:32.625Z,18.40
2023-04-18T13:13:00.167Z,20.20
2023-04-18T13:15:27.758Z,17.60
2023-04-18T13:17:58.478Z,12.63
2023-04-18T13:20:26.801Z,17.50
2023-04-18T13:22:54.359Z,18.90
2023-04-18T13:25:21.901Z,18.17
2023-04-18T13:27:50.375Z,16.15
2023-04-18T13:30:18.130Z,16.00
2023-04-18T13:32:46.134Z,12.43
2023-04-18T13:35:13.751Z,20.42
2023-04-18T13:37:41.245Z,15.88
2023-04-18T13:40:09.437Z,14.00
2023-04-18T13:42:38.426Z,17.45
2023-04-18T13:45:06.419Z,19.65
2023-04-18T13:47:34.020Z,14.15
2023-04-18T13:50:01.635Z,12.48
2023-04-18T13:52:29.337Z,18.38
2023-04-18T13:54:56.788Z,20.80
2023-04-18T13:57:24.310Z,16.10
2023-04-18T13:59:51.742Z,20.75
2023-04-18T14:02:24.717Z,16.92
2023-04-18T14:04:54.780Z,15.48
2023-04-18T14:07:22.491Z,14.63
2023-04-18T14:09:50.499Z,17.10
2023-04-18T14:12:19.001Z,14.70
2023-04-18T14:14:46.435Z,13.68
2023-04-18T14:17:13.927Z,15.80
2023-04-18T14:19:41.487Z,20.90
2023-04-18T14:22:08.889Z,11.73
2023-04-18T14:24:36.605Z,14.80
2023-04-18T14:27:04.114Z,12.40
2023-04-18T14:29:31.597Z,15.45
2023-04-18T14:31:59.426Z,16.17
2023-04-18T14:34:27.489Z,10.93
2023-04-18T14:36:55.116Z,14.13
2023-04-18T14:39:22.559Z,12.60
2023-04-18T14:41:50.273Z,14.85
2023-04-18T14:44:17.850Z,16.42
2023-04-18T14:46:45.608Z,13.88
2023-04-18T14:49:13.330Z,12.27
2023-04-18T14:51:40.872Z,13.32
2023-04-18T14:54:08.349Z,12.63
2023-04-18T14:56:36.020Z,13.45
2023-04-18T14:59:03.830Z,12.23
2023-04-18T15:01:35.105Z,16.15
2023-04-18T15:04:06.297Z,13.73
2023-04-18T15:06:37.355Z,15.93
2023-04-18T15:09:04.821Z,19.92
2023-04-18T15:11:32.255Z,16.80
2023-04-18T15:13:59.623Z,17.23
2023-04-18T15:16:27.596Z,16.13
2023-04-18T15:18:55.347Z,17.15
2023-04-18T15:21:22.793Z,18.42
2023-04-18T15:23:50.428Z,22.77
2023-04-18T15:26:17.846Z,19.05
2023-04-18T15:28:45.378Z,22.50
2023-04-18T15:31:12.849Z,21.30
2023-04-18T15:33:41.318Z,22.90
2023-04-18T15:36:10.026Z,20.02
2023-04-18T15:38:37.525Z,25.45
2023-04-18T15:41:05.165Z,29.55
2023-04-18T15:43:32.621Z,25.17
2023-04-18T15:46:00.066Z,22.77
2023-04-18T15:48:29.044Z,20.08
2023-04-18T15:50:56.741Z,26.90
2023-04-18T15:53:24.270Z,25.75
2023-04-18T15:55:53.571Z,28.58
2023-04-18T15:58:22.110Z,25.63
2023-04-18T16:00:51.355Z,36.05
2023-04-18T16:03:18.975Z,22.13
2023-04-18T16:05:47.668Z,22.80
2023-04-18T16:08:15.264Z,25.73
2023-04-18T16:10:43.076Z,27.30
2023-04-18T16:13:10.552Z,27.58
2023-04-18T16:15:41.930Z,28.25
2023-04-18T16:18:09.869Z,26.92
2023-04-18T16:20:37.571Z,24.73
2023-04-18T16:23:04.961Z,31.05
2023-04-18T16:25:32.604Z,24.73
2023-04-18T16:28:00.014Z,26.05
2023-04-18T16:30:27.460Z,32.03
2023-04-18T16:32:54.997Z,34.70
2023-04-18T16:35:22.792Z,31.75
2023-04-18T16:37:50.623Z,28.10
2023-04-18T16:40:18.322Z,29.42
2023-04-18T16:42:45.910Z,22.63
2023-04-18T16:45:13.696Z,25.58
2023-04-18T16:47:41.369Z,32.88
2023-04-18T16:50:09.519Z,26.77
2023-04-18T16:52:37.092Z,24.13
2023-04-18T16:55:05.087Z,24.95
2023-04-18T16:57:32.813Z,30.05
2023-04-18T17:00:02.579Z,26.92
2023-04-18T17:02:32.730Z,27.00
2023-04-18T17:05:00.621Z,30.20
2023-04-18T17:07:28.219Z,23.50
2023-04-18T17:09:55.691Z,25.98
2023-04-18T17:12:23.280Z,24.50
2023-04-18T17:14:50.717Z,30.15
2023-04-18T17:17:18.235Z,28.45
2023-04-18T17:19:46.453Z,32.08
2023-04-18T17:22:14.390Z,26.77
2023-04-18T17:24:41.802Z,30.15
2023-04-18T17:27:09.197Z,30.30
2023-04-18T17:29:37.180Z,33.25
2023-04-18T17:32:05.362Z,30.48
2023-04-18T17:34:32.934Z,26.13
2023-04-18T17:37:00.479Z,27.55
2023-04-18T17:39:32.262Z,24.25
2023-04-18T17:42:00.999Z,29.98
2023-04-18T17:44:28.762Z,26.27
2023-04-18T17:46:56.182Z,28.67
2023-04-18T17:49:23.720Z,24.02
2023-04-18T17:51:51.268Z,28.88
2023-04-18T17:54:18.724Z,26.38
2023-04-18T17:56:46.452Z,22.90
2023-04-18T17:59:14.334Z,26.25
2023-04-18T18:01:42.042Z,22.13
2023-04-18T18:04:10.099Z,25.60
2023-04-18T18:06:37.830Z,23.30
2023-04-18T18:09:05.670Z,25.35
2023-04-18T18:11:33.107Z,25.75
2023-04-18T18:14:01.525Z,23.40
2023-04-18T18:16:28.921Z,25.05
2023-04-18T18:18:56.529Z,23.95
2023-04-18T18:21:23.950Z,22.75
2023-04-18T18:23:51.504Z,28.80
2023-04-18T18:26:19.542Z,23.40
2023-04-18T18:28:47.099Z,30.35
2023-04-18T18:31:14.740Z,25.85
2023-04-18T18:33:42.331Z,23.27
2023-04-18T18:36:09.775Z,29.77
2023-04-18T18:38:37.234Z,22.27
2023-04-18T18:41:05.669Z,24.05
2023-04-18T18:43:33.640Z,21.88
2023-04-18T18:46:01.152Z,26.33
2023-04-18T18:48:28.766Z,30.33
2023-04-18T18:50:57.220Z,26.50
2023-04-18T18:53:24.727Z,25.80
2023-04-18T18:55:52.277Z,28.58
2023-04-18T18:58:19.856Z,29.67
2023-04-18T19:00:47.254Z,27.52
2023-04-18T19:03:16.793Z,26.27
2023-04-18T19:05:45.153Z,29.73
2023-04-18T19:08:12.752Z,28.52
2023-04-18T19:10:41.984Z,25.55
2023-04-18T19:13:10.337Z,22.65
2023-04-18T19:15:38.651Z,32.05
2023-04-18T19:18:06.245Z,27.35
2023-04-18T19:20:33.951Z,24.55
2023-04-18T19:23:01.579Z,30.50
2023-04-18T19:25:29.202Z,30.85
2023-04-18T19:27:56.781Z,32.13
2023-04-18T19:30:25.130Z,32.65
2023-04-18T19:32:52.840Z,35.67
2023-04-18T19:35:20.516Z,30.25
2023-04-18T19:37:48.050Z,35.75
2023-04-18T19:40:18.774Z,29.15
2023-04-18T19:42:46.624Z,30.17
2023-04-18T19:45:15.201Z,32.78
2023-04-18T19:47:44.394Z,30.98
2023-04-18T19:50:11.901Z,31.83
2023-04-18T19:52:39.486Z,37.70
2023-04-18T19:55:07.519Z,29.55
2023-04-18T19:57:41.586Z,28.65
2023-04-18T20:00:13.115Z,29.98
2023-04-18T20:02:42.626Z,33.50
2023-04-18T20:05:10.432Z,26.73
2023-04-18T20:07:38.608Z,26.65
2023-04-18T20:10:08.167Z,27.63
2023-04-18T20:12:35.782Z,30.33
2023-04-18T20:15:03.464Z,33.53
2023-04-18T20:17:34.399Z,26.70
2023-04-18T20:20:02.211Z,31.23
2023-04-18T20:22:29.784Z,26.25
2023-04-18T20:24:57.364Z,34.30
2023-04-18T20:27:24.856Z,36.03
2023-04-18T20:29:52.638Z,27.02
2023-04-18T20:32:20.540Z,32.03
2023-04-18T20:34:48.555Z,36.55
2023-04-18T20:37:19.716Z,33.50
2023-04-18T20:39:47.529Z,32.55
2023-04-18T20:42:15.837Z,38.22
2023-04-18T20:44:44.726Z,41.58
2023-04-18T20:47:13.864Z,31.45
2023-04-18T20:49:42.936Z,30.73
2023-04-18T20:52:10.659Z,31.92
2023-04-18T20:54:38.176Z,36.03
2023-04-18T20:57:05.781Z,33.80
2023-04-18T20:59:33.318Z,35.75
2023-04-18T21:02:01.007Z,35.67
2023-04-18T21:04:29.363Z,41.33
2023-04-18T21:06:56.819Z,39.50
2023-04-18T21:09:24.258Z,32.35
2023-04-18T21:11:51.656Z,35.78
2023-04-18T21:14:19.945Z,35.35
2023-04-18T21:16:47.327Z,30.80
2023-04-18T21:19:15.162Z,32.08
2023-04-18T21:21:43.671Z,34.30
2023-04-18T21:24:11.237Z,36.08
2023-04-18T21:26:38.643Z,35.53
2023-04-18T21:29:06.245Z,36.28
2023-04-18T21:31:34.817Z,35.13
2023-04-18T21:34:04.204Z,35.95
2023-04-18T21:36:32.288Z,34.75
2023-04-18T21:39:04.028Z,42.35
2023-04-18T21:41:31.454Z,45.72
2023-04-18T21:43:58.892Z,35.03
2023-04-18T21:46:26.535Z,36.90
2023-04-18T21:48:54.137Z,45.60
2023-04-18T21:51:21.940Z,44.35
2023-04-18T21:53:49.515Z,41.88
2023-04-18T21:56:17.208Z,36.25
2023-04-18T21:58:44.711Z,36.60
2023-04-18T22:01:12.271Z,41.63
2023-04-18T22:03:40.083Z,41.40
2023-04-18T22:06:07.956Z,54.28
2023-04-18T22:08:36.042Z,37.10
2023-04-18T22:11:04.753Z,44.80
2023-04-18T22:13:35.613Z,42.58
2023-04-18T22:16:03.833Z,36.40
2023-04-18T22:18:37.770Z,41.67
2023-04-18T22:21:06.119Z,42.30
2023-04-18T22:23:33.633Z,42.90
2023-04-18T22:26:01.299Z,41.15
2023-04-18T22:28:28.949Z,35.33
2023-04-18T22:30:57.030Z,43.80
2023-04-18T22:33:24.785Z,48.40
2023-04-18T22:35:52.648Z,48.95
2023-04-18T22:38:20.128Z,41.85
2023-04-18T22:40:47.709Z,44.63
2023-04-18T22:43:15.306Z,47.03
2023-04-18T22:45:42.754Z,45.53
2023-04-18T22:48:12.698Z,39.22
2023-04-18T22:50:43.138Z,36.95
2023-04-18T22:53:11.305Z,41.70
2023-04-18T22:55:40.498Z,41.78
2023-04-18T22:58:08.710Z,40.40
2023-04-18T23:00:36.384Z,44.40
2023-04-18T23:03:04.558Z,43.85
2023-04-18T23:05:32.238Z,41.58
2023-04-18T23:08:00.580Z,47.30
2023-04-18T23:10:28.381Z,36.20
2023-04-18T23:12:56.337Z,44.63
2023-04-18T23:15:24.552Z,43.78
2023-04-18T23:17:53.078Z,43.30
2023-04-18T23:20:21.302Z,49.90
2023-04-18T23:22:51.499Z,45.72
2023-04-18T23:25:22.415Z,35.80
2023-04-18T23:27:49.891Z,41.80
2023-04-18T23:30:17.338Z,42.00
2023-04-18T23:32:44.785Z,40.35
2023-04-18T23:35:12.361Z,47.65
2023-04-18T23:37:40.202Z,47.72
2023-04-18T23:40:08.640Z,49.25
2023-04-18T23:42:36.316Z,42.78
2023-04-18T23:45:05.805Z,51.80
2023-04-18T23:47:34.787Z,44.53
2023-04-18T23:50:02.589Z,52.05
2023-04-18T23:52:30.884Z,50.53
2023-04-18T23:55:00.706Z,46.50
2023-04-18T23:57:28.533Z,54.35
2023-04-18T23:59:55.946Z,43.83
